Weather observations for the past three days for
Pitt-Greenville Airport
Imperial (Metric)
Date Time (edt) Wind (mph) Vis. (mi.) Weather Sky Cond. Temperature (ºF) Relative Humidity Wind Chill (°F) Heat Index (°F) Pressure Precipitation (in)
Air Dwpt 6 hour altimeter (in) sea level (mb) 1 hr 3 hr 6 hr
Max. Min.
06 04:55 S 7 10.00 Fair CLR 59 55.4 88% 29.98 0.0
06 04:35 S 7 10.00 Fair CLR 59 55.4 88% 29.98 0.0
06 04:15 S 7 10.00 Fair CLR 60.8 55.4 83% 29.99 0.0
06 03:55 S 8 10.00 Fair CLR 60.8 55.4 83% 29.99 0.0
06 03:35 S 8 10.00 Fair CLR 62.6 55.4 77% 29.99 0.0
06 03:15 S 9 10.00 Fair CLR 60.8 55.4 83% 29.98 0.0
06 02:55 S 9 10.00 Fair CLR 60.8 55.4 83% 29.98 0.0
06 02:35 S 10 10.00 Fair CLR 62.6 55.4 77% 29.98 0.0
06 02:15 S 9 10.00 Fair CLR 62.6 55.4 77% 29.99 0.0
06 01:55 S 8 10.00 Fair CLR 62.6 55.4 71.8 61.7 77% 29.99 0.0
06 01:35 S 10 10.00 Fair CLR 62.6 55.4 77% 30.01 0.0
06 01:15 S 10 10.00 Fair CLR 62.6 55.4 77% 30.01 0.0
06 00:55 S 10 10.00 Fair CLR 62.6 55.4 77% 30.01 0.0
06 00:35 S 8 10.00 Fair CLR 62.6 55.4 77% 30.02 0.0
06 00:15 S 9 10.00 Fair CLR 62.6 55.4 77% 30.02 0.0
05 23:56 S 8 10.00 Fair CLR 62.6 55.4 77% 30.03 0.0
05 23:35 S 8 10.00 Fair CLR 62.6 55.4 77% 30.02 0.0
05 23:15 S 10 10.00 Fair CLR 64.4 55.4 73% 30.03 0.0
05 22:35 S 13 10.00 Fair CLR 64.4 53.6 68% 30.02 0.0
05 22:15 S 12 G 18 10.00 Fair CLR 66.2 55.4 68% 30.02 0.0
05 21:55 S 16 10.00 Fair CLR 68 55.4 64% 30.02 0.0
05 21:35 S 15 G 20 10.00 Fair CLR 68 55.4 64% 30.01 0.0
05 21:15 S 14 G 20 10.00 Fair CLR 68 55.4 64% 30.01 0.0
05 20:55 S 15 10.00 Fair CLR 69.8 55.4 60% 30 0.0
05 20:35 S 13 G 18 10.00 Fair CLR 69.8 55.4 60% 29.99 0.0
05 20:15 S 14 10.00 Fair CLR 71.6 55.4 57% 29.99 0.0
05 19:55 S 13 10.00 Fair CLR 71.6 55.4 81.7 71.8 57% 29.99 0.0
05 19:35 S 17 G 26 10.00 Fair CLR 73.4 55.4 53% 29.98 0.0
05 19:15 S 17 10.00 Fair CLR 73.4 57.2 57% 29.98 0.0
05 18:55 S 18 G 23 10.00 Fair CLR 75.2 55.4 50% 78 29.97 0.0
05 18:35 S 18 G 24 10.00 Fair CLR 75.2 55.4 50% 78 29.98 0.0
05 18:15 S 21 10.00 Fair and Breezy CLR 77 55.4 47% 79 29.97 0.0
05 17:55 S 22 G 25 10.00 Fair and Breezy CLR 78.8 55.4 45% 79 29.97 0.0
05 17:35 S 13 10.00 Fair CLR 78.8 55.4 45% 79 29.97 0.0
05 17:15 S 18 G 24 10.00 A Few Clouds FEW055 78.8 55.4 45% 79 29.97 0.0
05 16:55 S 18 10.00 A Few Clouds FEW055 78.8 55.4 45% 79 29.97 0.0
05 16:35 S 15 10.00 Partly Cloudy SCT065 80.6 55.4 42% 81 29.97 0.0
05 16:15 S 14 G 20 10.00 Partly Cloudy SCT065 80.6 55.4 42% 81 29.97 0.0
05 15:35 S 14 G 20 10.00 A Few Clouds FEW060 78.8 53.6 42% 79 29.99 0.0
05 15:15 S 18 G 24 10.00 Partly Cloudy SCT060 80.6 53.6 39% 80 30 0.0
05 14:55 S 15 10.00 Partly Cloudy SCT060 80.6 53.6 39% 80 30.01 0.0
05 14:35 SW 15 G 24 10.00 Fair CLR 80.6 51.8 37% 80 30.01 0.0
05 14:15 SW 9 G 18 10.00 A Few Clouds FEW060 80.6 53.6 39% 80 30.02 0.0
05 13:55 SW 13 G 21 10.00 A Few Clouds FEW050 78.8 53.6 79.7 60.1 42% 79 30.03 0.0
05 13:35 SW 15 G 18 10.00 A Few Clouds FEW050 78.8 53.6 42% 79 30.03 0.0
05 13:15 SW 12 G 16 10.00 A Few Clouds FEW050 78.8 53.6 42% 79 30.03 0.0
05 12:55 SW 13 10.00 Fair CLR 78.8 53.6 42% 79 30.04 0.0
05 12:35 S 13 G 18 10.00 Fair CLR 77 53.6 44% 78 30.04 0.0
05 12:15 SW 12 10.00 Fair CLR 77 53.6 44% 78 30.05 0.0
05 11:35 SW 12 G 16 10.00 Fair CLR 75.2 53.6 47% 78 30.06 0.0
05 11:15 SW 13 G 20 10.00 Fair CLR 73.4 53.6 50% 30.06 0.0
05 10:55 SW 12 G 18 10.00 Fair CLR 73.4 55.4 53% 30.07 0.0
05 10:35 SW 12 G 17 10.00 Fair CLR 73.4 55.4 53% 30.06 0.0
05 10:15 SW 12 G 17 10.00 Fair CLR 71.6 55.4 57% 30.06 0.0
05 09:55 SW 13 10.00 Fair CLR 69.8 55.4 60% 30.06 0.0
05 09:35 SW 12 G 17 10.00 Fair CLR 68 55.4 64% 30.07 0.0
05 09:15 SW 10 10.00 Fair CLR 68 55.4 64% 30.06 0.0
05 08:55 SW 10 10.00 Fair CLR 66.2 53.6 64% 30.07 0.0
05 08:35 SW 9 10.00 Fair CLR 64.4 53.6 68% 30.07 0.0
05 08:15 SW 7 10.00 Fair CLR 62.6 53.6 73% 30.07 0.0
05 07:55 SW 7 10.00 Fair CLR 60.8 53.6 60.1 51.6 77% 30.06 0.0
05 07:35 S 6 10.00 Fair CLR 57.2 51.8 82% 30.06 0.0
05 07:15 S 6 10.00 Fair CLR 55.4 51.8 88% 30.06 0.0
05 06:55 S 6 10.00 Fair CLR 53.6 50 88% 30.05 0.0
05 06:35 S 3 10.00 Fair CLR 53.6 50 88% 30.04 0.0
05 06:15 S 5 10.00 Fair CLR 51.8 50 94% 30.03 0.0
05 05:55 S 3 10.00 Fair CLR 51.8 50 94% 30.03 0.0
05 05:35 S 3 10.00 Fair CLR 53.6 50 88% 30.02 0.0
05 05:15 S 6 10.00 Fair CLR 53.6 50 88% 30.02 0.0
05 04:55 S 5 10.00 Fair CLR 53.6 50 88% 30.01 0.0
05 04:35 S 6 10.00 Fair CLR 53.6 50 88% 30.01 0.0
05 04:15 S 5 10.00 Fair CLR 55.4 50 82% 30.01 0.0
05 03:55 S 6 10.00 Fair CLR 53.6 48.2 82% 30.01 0.0
05 03:35 S 6 10.00 Fair CLR 53.6 48.2 82% 30.01 0.0
05 03:15 SW 3 10.00 Fair CLR 53.6 48.2 82% 30 0.0
05 02:55 S 7 10.00 Fair CLR 57.2 50 77% 30 0.0
05 02:35 S 6 10.00 Fair CLR 57.2 50 77% 30 0.0
05 02:15 S 7 10.00 Fair CLR 59 50 72% 30 0.0
05 01:55 S 8 10.00 Fair CLR 59 50 69.8 58.8 72% 30.01 0.0
05 01:35 S 7 10.00 Fair CLR 60.8 50 68% 30.01 0.0
05 01:15 S 9 10.00 Fair CLR 60.8 50 68% 30.01 0.0
05 00:55 S 9 10.00 Fair CLR 60.8 50 68% 30.02 0.0
05 00:35 S 10 10.00 Fair CLR 62.6 50 64% 30.02 0.0
05 00:15 SW 10 10.00 Fair CLR 62.6 50 64% 30.01 0.0
04 23:55 S 9 10.00 Fair CLR 62.6 50 64% 30.01 0.0
04 23:35 S 10 10.00 Fair CLR 62.6 50 64% 30.01 0.0
04 23:15 S 14 10.00 Fair CLR 64.4 50 60% 30.01 0.0
04 22:55 S 13 10.00 Fair CLR 64.4 50 60% 30.01 0.0
04 22:35 S 13 10.00 Fair CLR 64.4 50 60% 30.01 0.0
04 22:15 S 13 G 18 10.00 Fair CLR 64.4 50 60% 30.01 0.0
04 21:55 S 15 10.00 Fair CLR 64.4 50 60% 30 0.0
04 21:35 S 13 10.00 Fair CLR 66.2 50 56% 30 0.0
04 21:15 S 12 10.00 Fair CLR 66.2 50 56% 29.99 0.0
04 20:55 S 14 10.00 Fair CLR 68 50 53% 29.98 0.0
04 20:35 S 17 G 21 10.00 Fair CLR 68 48.2 49% 29.97 0.0
04 20:15 S 15 G 22 10.00 Fair CLR 68 50 53% 29.97 0.0
04 19:55 S 18 G 23 10.00 Fair CLR 69.8 50 79.3 69.6 50% 29.96 0.0
04 19:35 S 18 10.00 Fair CLR 71.6 51.8 50% 29.95 0.0
04 19:15 S 18 G 26 10.00 Fair CLR 71.6 51.8 50% 29.94 0.0
04 18:55 S 23 10.00 Fair and Breezy CLR 73.4 51.8 47% 29.94 0.0
04 18:35 S 16 G 25 10.00 Fair CLR 75.2 51.8 44% 78 29.94 0.0
04 18:15 S 18 G 24 10.00 Fair CLR 75.2 51.8 44% 78 29.93 0.0
04 17:55 SW 12 10.00 Fair CLR 78.8 42.8 28% 78 29.94 0.0
04 17:35 SW 16 G 21 10.00 Fair CLR 78.8 42.8 28% 78 29.94 0.0
04 17:15 SW 16 10.00 Fair CLR 78.8 42.8 28% 78 29.94 0.0
04 16:55 SW 15 G 23 10.00 Fair CLR 78.8 42.8 28% 78 29.94 0.0
04 16:35 S 13 G 21 10.00 Fair CLR 78.8 42.8 28% 78 29.94 0.0
04 16:15 SW 18 G 24 10.00 Fair CLR 78.8 42.8 28% 78 29.95 0.0
04 15:55 SW 9 G 20 10.00 Fair CLR 77 42.8 30% 78 29.95 0.0
04 15:35 SW 16 G 20 10.00 Fair CLR 78.8 42.8 28% 78 29.96 0.0
04 15:15 SW 10 10.00 Fair CLR 78.8 44.6 30% 79 29.96 0.0
04 14:55 SW 10 G 20 10.00 Fair CLR 77 42.8 30% 78 29.97 0.0
04 14:35 SW 12 G 21 10.00 Fair CLR 77 44.6 32% 78 29.98 0.0
04 14:15 SW 14 G 17 10.00 A Few Clouds FEW070 77 44.6 32% 78 29.99 0.0
04 13:55 S 14 G 22 10.00 A Few Clouds FEW070 77 42.8 76.8 55.6 30% 78 29.99 0.0
04 13:35 SW 9 G 17 10.00 Fair CLR 75.2 44.6 34% 77 30 0.0
04 13:15 SW 13 G 18 10.00 Fair CLR 75.2 44.6 34% 77 30.01 0.0
04 12:55 SW 10 10.00 Fair CLR 75.2 44.6 34% 77 30.01 0.0
04 12:35 SW 8 G 20 10.00 Fair CLR 75.2 46.4 36% 77 30.01 0.0
04 12:15 SW 9 10.00 Fair CLR 73.4 46.4 38% 30.02 0.0
04 11:55 SW 14 G 17 10.00 Fair CLR 73.4 48.2 41% 30.02 0.0
04 11:35 SW 12 G 18 10.00 Fair CLR 71.6 50 47% 30.03 0.0
04 11:15 S 10 G 17 10.00 Fair CLR 71.6 50 47% 30.04 0.0
04 10:55 SW 12 10.00 Fair CLR 69.8 48.2 46% 30.04 0.0
04 10:35 SW 14 10.00 Fair CLR 69.8 50 50% 30.04 0.0
04 10:15 SW 10 10.00 Fair CLR 68 50 53% 30.04 0.0
04 09:55 SW 12 10.00 Fair CLR 66.2 50 56% 30.04 0.0
04 09:35 SW 13 10.00 Fair CLR 64.4 50 60% 30.05 0.0
04 09:15 SW 12 10.00 Fair CLR 62.6 50 64% 30.05 0.0
04 08:55 SW 13 10.00 Fair CLR 62.6 50 64% 30.05 0.0
04 08:35 SW 12 10.00 Fair CLR 60.8 50 68% 30.06 0.0
04 07:55 SW 9 10.00 Fair CLR 55.4 48.2 55.6 45 77% 30.06 0.0
04 07:35 SW 7 10.00 Fair CLR 53.6 48.2 82% 30.07 0.0
04 07:15 S 5 10.00 Fair CLR 51.8 46.4 82% 30.07 0.0
04 06:55 S 5 10.00 Fair CLR 48.2 46.4 94% 47 30.06 0.0
04 06:35 SW 3 10.00 Fair CLR 46.4 44.6 93% 30.06 0.0
04 06:15 SW 3 10.00 Fair CLR 46.4 44.6 93% 30.06 0.0
04 05:55 S 2 10.00 Fair CLR 46.4 44.6 93% 30.06 0.0
04 05:15 Vrbl 2 10.00 Fair CLR 46.4 42.8 87% 30.07 0.0
04 04:55 E 2 10.00 Fair CLR 46.4 42.8 87% 30.07 0.0
04 04:35 SE 2 10.00 Fair CLR 46.4 42.8 87% 30.07 0.0
04 04:15 S 1 10.00 Fair CLR 48.2 44.6 87% 30.06 0.0
04 03:55 S 2 10.00 Fair CLR 48.2 44.6 87% 30.06 0.0
04 03:35 SW 2 10.00 Fair CLR 48.2 42.8 82% 30.07 0.0
04 03:15 SW 3 10.00 Fair CLR 46.4 42.8 87% 30.07 0.0
04 02:55 S 5 10.00 Fair CLR 46.4 42.8 87% 45 30.06 0.0
04 02:35 Calm 10.00 Fair CLR 46.4 42.8 87% 30.07 0.0
04 02:07 S 1 10.00 Fair CLR 44.6 42.8 93% 30.07 0.0
04 01:55 Calm 10.00 Fair CLR 46.4 41 60.8 44.8 82% 30.06 0.0
04 01:35 E 1 10.00 Fair CLR 46.4 41 82% 30.07 0.0
04 01:15 SE 1 10.00 Fair CLR 46.4 41 82% 30.07 0.0
04 00:55 S 5 10.00 Fair CLR 46.4 41 82% 45 30.08 0.0
04 00:35 S 3 10.00 Fair CLR 46.4 44.6 93% 30.08 0.0
04 00:15 S 2 10.00 Fair CLR 44.6 44.6 100% 30.07 0.0
03 23:55 SW 2 10.00 Fair CLR 44.6 44.6 100% 30.07 0.0
03 23:35 SW 2 10.00 Fair CLR 46.4 44.6 93% 30.07 0.0
03 23:15 S 2 10.00 Fair CLR 46.4 44.6 93% 30.07 0.0
03 22:55 S 1 10.00 Fair CLR 46.4 44.6 93% 30.07 0.0
03 22:35 S 1 10.00 Fair CLR 46.4 44.6 93% 30.07 0.0
03 22:15 SW 2 10.00 Fair CLR 48.2 44.6 87% 30.07 0.0
03 21:55 SW 1 10.00 Fair CLR 48.2 44.6 87% 30.06 0.0
03 21:35 S 2 10.00 Fair CLR 48.2 44.6 87% 30.06 0.0
03 21:15 SW 2 10.00 Fair CLR 50 42.8 76% 30.05 0.0
03 20:55 SW 2 10.00 Fair CLR 50 41 71% 30.04 0.0
03 20:35 SW 3 10.00 Fair CLR 51.8 41 67% 30.03 0.0
03 20:15 E 1 10.00 Fair CLR 53.6 39.2 58% 30.03 0.0
03 19:55 W 2 10.00 Fair CLR 55.4 37.4 66.2 60.6 51% 30.02 0.0
03 19:35 W 2 10.00 Fair CLR 62.6 33.8 34% 30.02 0.0
03 19:15 Vrbl 3 10.00 Fair CLR 62.6 33.8 34% 30.02 0.0
03 18:55 NW 5 10.00 Fair CLR 64.4 30.2 28% 30.01 0.0
03 18:35 W 5 10.00 Fair CLR 64.4 32 30% 30.01 0.0
03 18:15 Vrbl 6 10.00 Fair CLR 64.4 32 30% 30.01 0.0
03 17:55 Vrbl 6 10.00 Fair CLR 64.4 32 30% 30.01 0.0
03 17:35 NW 7 10.00 Fair CLR 66.2 32 28% 30.01 0.0
03 17:15 NW 7 10.00 Fair CLR 64.4 32 30% 30.01 0.0
03 16:55 Vrbl 5 10.00 Fair CLR 66.2 32 28% 30.01 0.0
03 16:35 Vrbl 6 10.00 Fair CLR 64.4 32 30% 30.01 0.0
03 16:15 NW 8 10.00 Fair CLR 66.2 33.8 30% 30.01 0.0
03 15:55 Vrbl 5 10.00 Fair CLR 64.4 32 30% 30.02 0.0
03 15:35 NW 8 10.00 Fair CLR 64.4 32 30% 30.03 0.0
03 15:15 W 7 10.00 Fair CLR 64.4 32 30% 30.04 0.0
03 14:55 W 12 10.00 Fair CLR 62.6 32 32% 30.04 0.0
03 14:35 W 9 10.00 Fair CLR 64.4 33.8 32% 30.05 0.0
03 14:15 W 9 G 17 10.00 Fair CLR 62.6 32 32% 30.06 0.0
03 13:55 NW 8 10.00 Fair CLR 62.6 33.8 63.1 47.3 34% 30.06 0.0
03 13:35 NW 10 10.00 Fair CLR 60.8 33.8 36% 30.06 0.0
03 13:15 W 8 10.00 Fair CLR 60.8 33.8 36% 30.07 0.0
03 12:55 W 7 10.00 Fair CLR 60.8 35.6 39% 30.07 0.0
03 12:35 NW 10 10.00 Fair CLR 60.8 33.8 36% 30.07 0.0
03 12:15 W 7 10.00 Fair CLR 59 32 36% 30.09 0.0
03 11:55 N 10 G 17 10.00 Fair CLR 59 32 36% 30.09 0.0
03 11:35 NW 12 G 17 10.00 Fair CLR 59 32 36% 30.09 0.0
03 11:15 Vrbl 7 10.00 Fair CLR 57.2 33.8 41% 30.09 0.0
03 10:55 NW 9 10.00 Fair CLR 57.2 35.6 44% 30.09 0.0
03 10:35 N 8 10.00 Fair CLR 57.2 39.2 51% 30.09 0.0
03 10:15 NW 9 10.00 Fair CLR 55.4 39.2 55% 30.09 0.0
03 09:55 NW 7 10.00 Fair CLR 55.4 41 59% 30.09 0.0
03 09:35 N 9 10.00 Fair CLR 53.6 39.2 58% 30.09 0.0
03 09:15 N 7 10.00 Fair CLR 53.6 39.2 58% 30.09 0.0
03 08:35 NW 8 10.00 Fair CLR 50 39.2 67% 47 30.09 0.0
03 08:15 NW 7 10.00 Fair CLR 48.2 39.2 71% 46 30.08 0.0
03 07:55 NW 7 10.00 Fair CLR 48.2 39.2 49.6 44.2 71% 46 30.06 0.0
03 07:35 NW 7 10.00 Fair CLR 46.4 39.2 76% 43 30.05 0.0
03 07:15 NW 7 10.00 Fair CLR 44.6 39.2 81% 41 30.04 0.0
03 06:55 NW 7 10.00 Fair CLR 44.6 39.2 81% 41 30.03 0.0
03 06:35 NW 6 10.00 Fair CLR 44.6 39.2 81% 42 30.02 0.0
03 06:15 NW 7 10.00 Fair CLR 44.6 39.2 81% 41 30 0.0
03 05:55 Vrbl 6 10.00 Fair CLR 44.6 39.2 81% 42 29.99 0.0
03 05:35 Vrbl 6 10.00 Fair CLR 44.6 41 87% 42 29.99 0.0
Date Time (edt) Wind (mph) Vis. (mi.) Weather Sky Cond. Air Dwpt Max. Min. Relative Humidity Wind Chill (°F) Heat Index (°F) altimeter (in) sea level (mb) 1 hr 3 hr 6 hr
6 hour
Temperature (ºF) Pressure Precipitation (in)